createdAt,value
2018-12-26T00:01:16.777Z,-1.89
2018-12-26T00:03:48.313Z,-1.90
2018-12-26T00:06:19.122Z,-1.87
2018-12-26T00:08:49.880Z,-1.85
2018-12-26T00:11:20.840Z,-1.83
2018-12-26T00:13:51.892Z,-1.94
2018-12-26T00:16:22.911Z,-1.85
2018-12-26T00:18:53.897Z,-1.96
2018-12-26T00:21:25.415Z,-2.05
2018-12-26T00:23:56.586Z,-2.06
2018-12-26T00:26:27.758Z,-2.06
2018-12-26T00:28:58.797Z,-2.11
2018-12-26T00:31:29.780Z,-2.00
2018-12-26T00:34:00.541Z,-2.00
2018-12-26T00:36:31.757Z,-2.06
2018-12-26T00:39:02.890Z,-2.12
2018-12-26T00:41:34.165Z,-2.20
2018-12-26T00:44:05.059Z,-2.15
2018-12-26T00:46:36.101Z,-2.15
2018-12-26T00:49:07.220Z,-2.17
2018-12-26T00:51:38.660Z,-2.11
2018-12-26T00:54:09.676Z,-2.27
2018-12-26T00:56:40.643Z,-2.32
2018-12-26T00:59:11.881Z,-2.37
2018-12-26T01:01:43.593Z,-2.30
2018-12-26T01:04:15.020Z,-2.37
2018-12-26T01:06:46.594Z,-2.45
2018-12-26T01:09:17.820Z,-2.43
2018-12-26T01:11:48.573Z,-2.39
2018-12-26T01:14:19.705Z,-2.42
2018-12-26T01:16:50.844Z,-2.42
2018-12-26T01:19:21.853Z,-2.52
2018-12-26T01:21:53.164Z,-2.53
2018-12-26T01:24:24.808Z,-2.50
2018-12-26T01:26:55.804Z,-2.60
2018-12-26T01:29:26.821Z,-2.63
2018-12-26T01:31:58.645Z,-2.60
2018-12-26T01:34:29.717Z,-2.55
2018-12-26T01:37:00.559Z,-2.57
2018-12-26T01:39:31.661Z,-2.44
2018-12-26T01:42:02.962Z,-2.42
2018-12-26T01:44:33.769Z,-2.54
2018-12-26T01:47:04.849Z,-2.47
2018-12-26T01:49:36.058Z,-2.42
2018-12-26T01:52:07.068Z,-2.27
2018-12-26T01:54:37.934Z,-2.19
2018-12-26T01:57:08.775Z,-1.97
2018-12-26T01:59:40.100Z,-1.92
2018-12-26T02:02:11.418Z,-1.75
2018-12-26T02:04:42.207Z,-1.69
2018-12-26T02:07:13.534Z,-1.65
2018-12-26T02:09:44.651Z,-1.52
2018-12-26T02:12:15.476Z,-1.57
2018-12-26T02:14:46.597Z,-1.49
2018-12-26T02:17:17.871Z,-1.26
2018-12-26T02:19:48.903Z,-1.15
2018-12-26T02:22:19.914Z,-1.17
2018-12-26T02:24:50.998Z,-1.16
2018-12-26T02:27:22.074Z,-1.13
2018-12-26T02:29:53.228Z,-1.18
2018-12-26T02:32:24.385Z,-1.11
2018-12-26T02:34:55.477Z,-1.05
2018-12-26T02:37:46.954Z,-0.97
2018-12-26T02:40:18.635Z,-1.01
2018-12-26T02:42:49.416Z,-0.97
2018-12-26T02:45:20.698Z,-0.97
2018-12-26T02:47:52.078Z,-0.97
2018-12-26T02:50:23.114Z,-1.04
2018-12-26T02:55:44.528Z,-1.04
2018-12-26T02:58:15.591Z,-1.09
2018-12-26T03:00:46.651Z,-1.20
2018-12-26T03:09:58.310Z,-1.26
2018-12-26T03:15:31.530Z,-1.26
2018-12-26T03:18:02.903Z,-1.28
2018-12-26T03:20:34.256Z,-1.22
2018-12-26T03:23:05.274Z,-1.25
2018-12-26T03:25:36.305Z,-1.29
2018-12-26T03:28:07.398Z,-1.06
2018-12-26T03:30:38.876Z,-1.11
2018-12-26T03:33:10.133Z,-1.07
2018-12-26T03:35:41.675Z,-0.95
2018-12-26T03:38:12.510Z,-1.08
2018-12-26T03:40:43.681Z,-1.14
2018-12-26T03:43:15.039Z,-1.17
2018-12-26T03:45:46.215Z,-1.11
2018-12-26T03:48:18.072Z,-1.00
2018-12-26T03:50:49.021Z,-1.20
2018-12-26T03:53:20.720Z,-1.11
2018-12-26T03:55:51.687Z,-1.11
2018-12-26T03:58:22.857Z,-1.21
2018-12-26T04:00:54.331Z,-1.11
2018-12-26T04:03:25.201Z,-1.14
2018-12-26T04:05:56.227Z,-1.21
2018-12-26T04:08:27.352Z,-1.21
2018-12-26T04:10:58.219Z,-1.21
2018-12-26T04:13:29.705Z,-1.13
2018-12-26T04:16:00.878Z,-1.06
2018-12-26T04:18:32.257Z,-1.22
2018-12-26T04:21:03.604Z,-1.18
2018-12-26T04:23:34.693Z,-1.32
2018-12-26T04:26:05.830Z,-1.28
2018-12-26T04:28:37.000Z,-1.26
2018-12-26T04:31:07.802Z,-1.11
2018-12-26T04:33:38.588Z,-1.15
2018-12-26T04:36:09.635Z,-1.35
2018-12-26T04:38:40.694Z,-1.31
2018-12-26T04:41:11.725Z,-1.23
2018-12-26T04:43:42.600Z,-1.23
2018-12-26T04:46:13.686Z,-1.18
2018-12-26T04:48:44.736Z,-1.18
2018-12-26T04:51:15.738Z,-1.35
2018-12-26T04:53:47.097Z,-1.31
2018-12-26T04:56:18.414Z,-1.32
2018-12-26T04:58:49.483Z,-1.26
2018-12-26T05:01:20.826Z,-1.34
2018-12-26T05:03:51.918Z,-1.20
2018-12-26T05:06:22.991Z,-1.13
2018-12-26T05:08:54.297Z,-1.12
2018-12-26T05:11:25.298Z,-1.12
2018-12-26T05:13:56.459Z,-1.21
2018-12-26T05:16:27.534Z,-1.23
2018-12-26T05:18:58.705Z,-1.12
2018-12-26T05:21:31.027Z,-1.23
2018-12-26T05:24:05.345Z,-1.25
2018-12-26T05:26:36.460Z,-1.24
2018-12-26T05:29:07.500Z,-1.23
2018-12-26T05:31:38.284Z,-1.24
2018-12-26T05:34:09.723Z,-1.09
2018-12-26T05:36:40.811Z,-1.15
2018-12-26T05:39:11.856Z,-1.09
2018-12-26T05:41:42.649Z,-1.15
2018-12-26T05:44:13.680Z,-1.21
2018-12-26T05:46:44.487Z,-1.14
2018-12-26T05:49:16.050Z,-1.20
2018-12-26T05:51:47.423Z,-1.18
2018-12-26T05:54:18.498Z,-1.02
2018-12-26T05:56:49.519Z,-0.98
2018-12-26T05:59:21.152Z,-0.95
2018-12-26T06:01:52.420Z,-1.00
2018-12-26T06:04:23.799Z,-0.94
2018-12-26T06:06:55.058Z,-0.87
2018-12-26T06:09:26.409Z,-0.94
2018-12-26T06:11:57.735Z,-0.88
2018-12-26T06:14:28.755Z,-1.02
2018-12-26T06:16:59.835Z,-0.99
2018-12-26T06:19:31.150Z,-0.86
2018-12-26T06:22:02.769Z,-1.05
2018-12-26T06:24:33.885Z,-1.01
2018-12-26T06:27:05.033Z,-0.98
2018-12-26T06:29:36.434Z,-1.01
2018-12-26T06:32:07.542Z,-0.97
2018-12-26T06:34:39.430Z,-1.11
2018-12-26T06:37:10.215Z,-1.07
2018-12-26T06:39:41.286Z,-1.17
2018-12-26T06:42:12.462Z,-1.26
2018-12-26T06:44:43.507Z,-1.16
2018-12-26T06:47:15.063Z,-1.00
2018-12-26T06:49:46.767Z,-1.02
2018-12-26T06:52:17.931Z,-1.15
2018-12-26T06:54:49.228Z,-1.12
2018-12-26T06:57:20.526Z,-1.13
2018-12-26T06:59:51.955Z,-1.21
2018-12-26T07:02:23.014Z,-1.19
2018-12-26T07:04:54.121Z,-1.15
2018-12-26T07:07:25.214Z,-1.08
2018-12-26T07:09:56.015Z,-1.08
2018-12-26T07:12:27.151Z,-1.07
2018-12-26T07:14:58.278Z,-0.99
2018-12-26T07:17:29.303Z,-0.92
2018-12-26T07:20:00.370Z,-0.93
2018-12-26T07:22:31.756Z,-1.00
2018-12-26T07:25:03.016Z,-0.99
2018-12-26T07:27:34.694Z,-1.02
2018-12-26T07:30:05.877Z,-1.04
2018-12-26T07:32:36.890Z,-1.10
2018-12-26T07:35:08.072Z,-0.95
2018-12-26T07:37:39.115Z,-1.00
2018-12-26T07:40:10.135Z,-1.12
2018-12-26T07:42:40.926Z,-1.09
2018-12-26T07:45:11.776Z,-0.95
2018-12-26T07:47:43.397Z,-1.01
2018-12-26T07:50:14.993Z,-1.09
2018-12-26T07:52:46.320Z,-1.12
2018-12-26T07:55:17.717Z,-1.22
2018-12-26T07:57:49.235Z,-1.05
2018-12-26T08:00:20.864Z,-1.09
2018-12-26T08:02:51.707Z,-1.13
2018-12-26T08:05:23.349Z,-1.10
2018-12-26T08:07:54.742Z,-1.28
2018-12-26T08:10:25.534Z,-1.29
2018-12-26T08:12:56.610Z,-1.23
2018-12-26T08:15:27.524Z,-1.22
2018-12-26T08:17:58.971Z,-1.13
2018-12-26T08:20:30.183Z,-1.13
2018-12-26T08:23:01.865Z,-1.18
2018-12-26T08:25:33.218Z,-1.06
2018-12-26T08:28:04.368Z,-1.00
2018-12-26T08:30:35.619Z,-1.01
2018-12-26T08:33:06.717Z,-0.98
2018-12-26T08:35:38.384Z,-0.99
2018-12-26T08:38:09.514Z,-1.04
2018-12-26T08:40:40.572Z,-0.96
2018-12-26T08:43:11.590Z,-1.03
2018-12-26T08:45:42.486Z,-0.93
2018-12-26T08:48:13.647Z,-0.92
2018-12-26T08:50:44.930Z,-0.96
2018-12-26T08:53:16.370Z,-0.97
2018-12-26T08:55:47.907Z,-0.91
2018-12-26T08:58:19.363Z,-1.02
2018-12-26T09:00:50.894Z,-0.93
2018-12-26T09:03:21.979Z,-0.93
2018-12-26T09:05:53.530Z,-0.79
2018-12-26T09:09:01.555Z,-0.81
2018-12-26T09:11:52.409Z,-0.85
2018-12-26T09:14:23.454Z,-0.88
2018-12-26T09:16:54.878Z,-0.80
2018-12-26T09:19:25.768Z,-0.82
2018-12-26T09:21:56.781Z,-0.82
2018-12-26T09:24:28.077Z,-0.61
2018-12-26T09:26:59.276Z,-0.74
2018-12-26T09:29:30.682Z,-0.64
2018-12-26T09:32:01.566Z,-0.61
2018-12-26T09:34:32.459Z,-0.59
2018-12-26T09:37:03.809Z,-0.60
2018-12-26T09:39:34.667Z,-0.64
2018-12-26T09:42:06.049Z,-0.59
2018-12-26T09:44:37.679Z,-0.67
2018-12-26T09:47:09.080Z,-0.62
2018-12-26T09:49:40.398Z,-0.62
2018-12-26T09:52:11.428Z,-0.72
2018-12-26T09:54:42.497Z,-0.80
2018-12-26T09:57:13.622Z,-0.79
2018-12-26T09:59:44.641Z,-0.63
2018-12-26T10:02:15.650Z,-0.60
2018-12-26T10:04:47.140Z,-0.55
2018-12-26T10:07:18.144Z,-0.46
2018-12-26T10:09:49.790Z,-0.38
2018-12-26T10:12:21.366Z,0.10
2018-12-26T10:14:52.543Z,-0.28
2018-12-26T10:17:23.396Z,-0.32
2018-12-26T10:19:54.193Z,-0.45
2018-12-26T10:22:25.480Z,-0.45
2018-12-26T10:24:56.327Z,-0.42
2018-12-26T10:27:27.611Z,-0.39
2018-12-26T10:29:58.712Z,-0.41
2018-12-26T10:32:29.814Z,-0.29
2018-12-26T10:35:00.924Z,-0.23
2018-12-26T10:37:32.066Z,-0.29
2018-12-26T10:40:03.443Z,-0.26
2018-12-26T10:42:34.771Z,-0.17
2018-12-26T10:45:06.617Z,-0.37
2018-12-26T10:47:37.550Z,-0.32
2018-12-26T10:50:10.438Z,-0.21
2018-12-26T10:52:41.560Z,-0.16
2018-12-26T10:55:12.601Z,0.07
2018-12-26T10:57:43.902Z,-0.05
2018-12-26T11:00:15.075Z,-0.15
2018-12-26T11:02:46.092Z,-0.19
2018-12-26T11:05:16.871Z,-0.13
2018-12-26T11:07:48.322Z,-0.16
2018-12-26T11:10:19.365Z,-0.09
2018-12-26T11:12:50.268Z,-0.22
2018-12-26T11:15:23.091Z,-0.23
2018-12-26T11:18:29.490Z,-0.13
2018-12-26T11:21:19.747Z,-0.11
2018-12-26T11:27:27.372Z,-0.09
2018-12-26T11:30:00.170Z,-0.34
2018-12-26T11:32:44.747Z,-0.36
2018-12-26T11:35:52.726Z,-0.27
2018-12-26T11:41:15.102Z,-0.26
2018-12-26T11:43:47.789Z,-0.29
2018-12-26T11:49:32.652Z,-0.27
2018-12-26T11:52:07.141Z,-0.22
2018-12-26T11:54:38.221Z,-0.30
2018-12-26T11:57:09.011Z,-0.22
2018-12-26T11:59:40.087Z,-0.15
2018-12-26T12:02:11.439Z,-0.12
2018-12-26T12:04:42.461Z,-0.05
2018-12-26T12:10:34.253Z,-0.06
2018-12-26T12:16:24.717Z,-0.08
2018-12-26T12:22:28.858Z,-0.04
2018-12-26T12:43:20.953Z,0.05
2018-12-26T12:45:53.640Z,0.01
2018-12-26T13:01:13.967Z,0.00
2018-12-26T13:06:45.307Z,0.08
2018-12-26T13:09:16.107Z,0.06
2018-12-26T13:15:43.107Z,-0.03
2018-12-26T13:18:35.714Z,0.11
2018-12-26T13:21:06.502Z,0.15
2018-12-26T13:23:37.510Z,0.09
2018-12-26T13:26:08.535Z,0.12
2018-12-26T13:28:39.686Z,0.07
2018-12-26T13:31:10.960Z,0.18
2018-12-26T13:33:41.939Z,0.08
2018-12-26T13:36:13.305Z,0.12
2018-12-26T13:38:44.366Z,0.28
2018-12-26T13:41:15.230Z,0.19
2018-12-26T13:43:46.345Z,0.22
2018-12-26T13:46:17.662Z,0.18
2018-12-26T13:48:48.846Z,0.06
2018-12-26T13:51:20.309Z,0.10
2018-12-26T13:53:51.332Z,-0.01
2018-12-26T13:56:22.704Z,0.04
2018-12-26T13:58:53.483Z,0.07
2018-12-26T14:01:24.646Z,-0.05
2018-12-26T14:03:55.661Z,0.08
2018-12-26T14:06:26.737Z,0.12
2018-12-26T14:08:57.782Z,0.12
2018-12-26T14:11:29.612Z,0.04
2018-12-26T14:14:00.934Z,0.07
2018-12-26T14:16:32.106Z,0.04
2018-12-26T14:19:03.321Z,-0.08
2018-12-26T14:21:34.346Z,0.02
2018-12-26T14:24:05.486Z,-0.08
2018-12-26T14:26:36.902Z,-0.13
2018-12-26T14:29:08.032Z,-0.09
2018-12-26T14:31:39.522Z,-0.01
2018-12-26T14:34:10.849Z,0.07
2018-12-26T14:36:42.287Z,0.07
2018-12-26T14:39:13.057Z,0.02
2018-12-26T14:41:44.672Z,0.00
2018-12-26T14:44:15.764Z,0.05
2018-12-26T14:46:47.201Z,-0.01
2018-12-26T14:49:18.148Z,-0.06
2018-12-26T14:51:50.431Z,-0.03
2018-12-26T14:54:21.692Z,0.07
2018-12-26T14:56:52.819Z,-0.11
2018-12-26T14:59:24.197Z,-0.06
2018-12-26T15:01:55.762Z,-0.04
2018-12-26T15:04:27.056Z,-0.09
2018-12-26T15:06:58.397Z,-0.10
2018-12-26T15:09:29.536Z,-0.09
2018-12-26T15:12:00.332Z,-0.02
2018-12-26T15:14:31.595Z,-0.08
2018-12-26T15:17:02.729Z,-0.19
2018-12-26T15:19:34.085Z,-0.25
2018-12-26T15:22:05.393Z,-0.28
2018-12-26T15:24:36.718Z,-0.33
2018-12-26T15:27:08.491Z,-0.25
2018-12-26T15:29:39.788Z,-0.26
2018-12-26T15:32:11.922Z,-0.36
2018-12-26T15:34:43.901Z,-0.32
2018-12-26T15:37:15.506Z,-0.33
2018-12-26T15:39:46.919Z,-0.37
2018-12-26T15:42:18.231Z,-0.36
2018-12-26T15:44:49.086Z,-0.26
2018-12-26T15:47:20.646Z,-0.29
2018-12-26T15:49:51.925Z,-0.31
2018-12-26T15:52:23.892Z,-0.20
2018-12-26T15:54:54.671Z,-0.21
2018-12-26T15:57:25.699Z,-0.18
2018-12-26T15:59:57.277Z,-0.19
2018-12-26T16:02:28.678Z,-0.23
2018-12-26T16:04:59.533Z,-0.11
2018-12-26T16:07:31.000Z,-0.06
2018-12-26T16:10:02.065Z,-0.16
2018-12-26T16:12:33.539Z,-0.13
2018-12-26T16:15:05.328Z,-0.08
2018-12-26T16:17:36.702Z,-0.14
2018-12-26T16:20:09.864Z,-0.10
2018-12-26T16:25:54.712Z,-0.07
2018-12-26T16:28:26.068Z,-0.18
2018-12-26T16:31:20.493Z,-0.24
2018-12-26T16:34:03.490Z,-0.33
2018-12-26T16:39:36.834Z,-0.24
2018-12-26T16:42:27.803Z,-0.25
2018-12-26T16:44:59.347Z,-0.30
2018-12-26T16:47:30.941Z,-0.25
2018-12-26T16:50:02.082Z,-0.20
2018-12-26T16:52:33.631Z,-0.29
2018-12-26T16:55:05.472Z,-0.29
2018-12-26T16:57:36.789Z,-0.12
2018-12-26T17:00:08.319Z,-0.22
2018-12-26T17:02:39.490Z,-0.25
2018-12-26T17:08:24.641Z,-0.21
2018-12-26T17:10:57.787Z,-0.16
2018-12-26T17:13:28.862Z,-0.24
2018-12-26T17:16:00.164Z,-0.17
2018-12-26T17:18:31.030Z,-0.14
2018-12-26T17:21:02.133Z,-0.14
2018-12-26T17:23:33.393Z,-0.07
2018-12-26T17:26:04.406Z,-0.09
2018-12-26T17:28:35.659Z,-0.08
2018-12-26T17:31:49.669Z,-0.17
2018-12-26T17:34:20.853Z,-0.12
2018-12-26T17:40:06.519Z,-0.19
2018-12-26T17:42:58.437Z,-0.15
2018-12-26T17:45:29.820Z,-0.18
2018-12-26T17:48:02.575Z,-0.10
2018-12-26T17:50:54.508Z,-0.21
2018-12-26T17:54:19.972Z,-0.21
2018-12-26T18:04:07.302Z,-0.29
2018-12-26T18:06:58.488Z,-0.30
2018-12-26T18:09:29.655Z,-0.30
2018-12-26T18:19:20.298Z,-0.30
2018-12-26T18:21:51.362Z,-0.27
2018-12-26T18:24:22.804Z,-0.23
2018-12-26T18:27:13.208Z,-0.34
2018-12-26T18:33:33.770Z,-0.29
2018-12-26T18:36:59.971Z,-0.41
2018-12-26T18:39:33.048Z,-0.38
2018-12-26T18:42:04.729Z,-0.39
2018-12-26T18:44:35.538Z,-0.36
2018-12-26T18:47:06.666Z,-0.35
2018-12-26T18:49:37.784Z,-0.40
2018-12-26T18:52:08.583Z,-0.33
2018-12-26T18:54:39.974Z,-0.30
2018-12-26T18:57:11.030Z,-0.28
2018-12-26T18:59:42.935Z,-0.22
2018-12-26T19:02:14.337Z,-0.23
2018-12-26T19:04:46.386Z,-0.06
2018-12-26T19:07:17.685Z,-0.20
2018-12-26T19:09:48.910Z,-0.28
2018-12-26T19:12:20.306Z,-0.30
2018-12-26T19:14:51.346Z,-0.26
2018-12-26T19:17:22.603Z,-0.28
2018-12-26T19:19:53.789Z,-0.30
2018-12-26T19:22:24.821Z,-0.25
2018-12-26T19:24:55.979Z,-0.29
2018-12-26T19:27:27.098Z,-0.27
2018-12-26T19:29:59.495Z,-0.16
2018-12-26T19:32:31.727Z,-0.15
2018-12-26T19:35:03.482Z,-0.17
2018-12-26T19:37:34.794Z,-0.14
2018-12-26T19:43:54.429Z,-0.14
2018-12-26T19:46:37.394Z,-0.06
2018-12-26T19:49:28.064Z,-0.09
2018-12-26T19:51:58.851Z,-0.06
2018-12-26T19:54:29.940Z,-0.13
2018-12-26T19:57:01.455Z,-0.11
2018-12-26T19:59:32.727Z,-0.08
2018-12-26T20:02:03.767Z,-0.14
2018-12-26T20:04:35.335Z,-0.06
2018-12-26T20:07:06.591Z,-0.10
2018-12-26T20:09:37.724Z,-0.19
2018-12-26T20:12:10.211Z,-0.10
2018-12-26T20:14:41.546Z,-0.04
2018-12-26T20:17:12.999Z,0.00
2018-12-26T20:19:43.807Z,-0.09
2018-12-26T20:22:14.750Z,-0.09
2018-12-26T20:24:46.082Z,-0.10
2018-12-26T20:27:17.482Z,-0.13
2018-12-26T20:29:49.207Z,-0.10
2018-12-26T20:32:20.711Z,-0.03
2018-12-26T20:34:51.827Z,-0.15
2018-12-26T20:37:23.245Z,-0.08
2018-12-26T20:39:54.679Z,0.00
2018-12-26T20:42:26.259Z,-0.02
2018-12-26T20:44:57.390Z,-0.05
2018-12-26T20:47:29.904Z,0.01
2018-12-26T20:50:01.386Z,0.09
2018-12-26T20:52:32.558Z,0.08
2018-12-26T20:55:03.623Z,-0.03
2018-12-26T20:57:38.263Z,-0.18
2018-12-26T21:00:10.730Z,-0.11
2018-12-26T21:02:42.020Z,-0.03
2018-12-26T21:05:12.881Z,-0.06
2018-12-26T21:07:44.870Z,-0.07
2018-12-26T21:10:16.038Z,-0.06
2018-12-26T21:12:47.156Z,-0.03
2018-12-26T21:15:18.213Z,-0.07
2018-12-26T21:17:49.272Z,-0.08
2018-12-26T21:20:41.707Z,-0.14
2018-12-26T21:23:12.747Z,-0.14
2018-12-26T21:25:43.974Z,-0.09
2018-12-26T21:28:15.563Z,-0.07
2018-12-26T21:30:46.482Z,-0.07
2018-12-26T21:33:17.993Z,0.01
2018-12-26T21:35:49.183Z,0.09
2018-12-26T21:38:20.149Z,0.00
2018-12-26T21:40:51.640Z,0.05
2018-12-26T21:43:22.961Z,0.07
2018-12-26T21:45:54.217Z,0.04
2018-12-26T21:48:25.286Z,0.02
2018-12-26T21:50:56.467Z,0.01
2018-12-26T21:53:27.244Z,0.00
2018-12-26T21:55:58.312Z,-0.01
2018-12-26T21:58:29.833Z,-0.10
2018-12-26T22:01:00.954Z,-0.03
2018-12-26T22:03:32.334Z,-0.10
2018-12-26T22:06:03.423Z,-0.24
2018-12-26T22:08:34.763Z,-0.12
2018-12-26T22:11:05.601Z,-0.05
2018-12-26T22:13:36.773Z,-0.15
2018-12-26T22:16:08.403Z,-0.27
2018-12-26T22:18:39.954Z,-0.35
2018-12-26T22:21:11.428Z,-0.23
2018-12-26T22:23:42.444Z,-0.24
2018-12-26T22:26:13.616Z,-0.32
2018-12-26T22:28:45.144Z,-0.17
2018-12-26T22:31:16.502Z,-0.17
2018-12-26T22:33:47.937Z,-0.21
2018-12-26T22:36:19.256Z,-0.15
2018-12-26T22:38:50.527Z,-0.07
2018-12-26T22:41:22.683Z,-0.10
2018-12-26T22:43:54.276Z,-0.11
2018-12-26T22:46:25.426Z,-0.03
2018-12-26T22:48:56.567Z,-0.11
2018-12-26T22:51:27.968Z,-0.07
2018-12-26T22:53:59.306Z,-0.23
2018-12-26T22:56:30.683Z,-0.15
2018-12-26T22:59:02.456Z,-0.07
2018-12-26T23:01:33.911Z,-0.15
2018-12-26T23:04:04.992Z,-0.23
2018-12-26T23:06:36.131Z,-0.19
2018-12-26T23:09:07.915Z,-0.22
2018-12-26T23:11:39.374Z,-0.15
2018-12-26T23:14:10.701Z,-0.34
2018-12-26T23:16:41.888Z,-0.16
2018-12-26T23:19:12.924Z,-0.23
2018-12-26T23:21:44.014Z,-0.25
2018-12-26T23:24:15.271Z,-0.26
2018-12-26T23:26:46.351Z,-0.27
2018-12-26T23:29:17.951Z,-0.33
2018-12-26T23:31:49.287Z,-0.27
2018-12-26T23:34:21.546Z,-0.10
2018-12-26T23:36:52.920Z,-0.14
2018-12-26T23:39:23.998Z,-0.27
2018-12-26T23:41:55.220Z,-0.15
2018-12-26T23:44:26.500Z,-0.12
2018-12-26T23:46:57.872Z,-0.28
2018-12-26T23:49:28.727Z,-0.22
2018-12-26T23:52:00.014Z,-0.19
2018-12-26T23:54:30.869Z,-0.15
2018-12-26T23:57:01.837Z,-0.15
2018-12-26T23:59:33.342Z,-0.15
